createdAt,value
2022-12-05T00:00:46.601Z,24.10
2022-12-05T00:02:09.083Z,18.27
2022-12-05T00:03:32.491Z,14.43
2022-12-05T00:04:55.840Z,19.05
2022-12-05T00:06:18.673Z,15.48
2022-12-05T00:07:42.099Z,9.32
2022-12-05T00:09:05.325Z,26.65
2022-12-05T00:10:28.699Z,19.85
2022-12-05T00:11:51.053Z,22.73
2022-12-05T00:13:14.510Z,20.15
2022-12-05T00:14:36.926Z,24.63
2022-12-05T00:16:01.627Z,21.50
2022-12-05T00:17:24.972Z,23.48
2022-12-05T00:18:47.887Z,18.88
2022-12-05T00:20:11.778Z,12.90
2022-12-05T00:21:36.312Z,29.58
2022-12-05T00:22:59.707Z,25.60
2022-12-05T00:24:23.116Z,21.52
2022-12-05T00:25:45.469Z,13.98
2022-12-05T00:27:08.852Z,13.05
2022-12-05T00:28:31.666Z,21.08
2022-12-05T00:29:55.156Z,29.10
2022-12-05T00:31:20.588Z,22.45
2022-12-05T00:32:44.016Z,24.67
2022-12-05T00:34:06.384Z,18.30
2022-12-05T00:35:29.833Z,25.75
2022-12-05T00:36:53.172Z,23.33
2022-12-05T00:38:15.523Z,24.67
2022-12-05T00:39:39.193Z,23.45
2022-12-05T00:41:03.706Z,18.98
2022-12-05T00:42:27.062Z,20.48
2022-12-05T00:43:49.773Z,23.77
2022-12-05T00:45:13.448Z,19.42
2022-12-05T00:46:37.715Z,24.73
2022-12-05T00:48:01.130Z,23.60
2022-12-05T00:49:24.525Z,22.85
2022-12-05T00:50:47.871Z,14.65
2022-12-05T00:52:11.261Z,13.57
2022-12-05T00:53:33.827Z,17.02
2022-12-05T00:54:57.210Z,12.30
2022-12-05T00:56:20.901Z,20.40
2022-12-05T00:57:44.335Z,17.13
2022-12-05T00:59:08.632Z,13.10
2022-12-05T01:00:31.014Z,24.00
2022-12-05T01:01:55.793Z,23.73
2022-12-05T01:03:18.335Z,7.18
2022-12-05T01:04:41.760Z,27.70
2022-12-05T01:06:05.917Z,8.27
2022-12-05T01:07:29.383Z,8.45
2022-12-05T01:08:54.136Z,17.13
2022-12-05T01:10:16.640Z,17.73
2022-12-05T01:11:41.612Z,16.73
2022-12-05T01:13:05.216Z,7.78
2022-12-05T01:14:28.684Z,16.13
2022-12-05T01:15:51.590Z,15.55
2022-12-05T01:17:16.273Z,24.83
2022-12-05T01:18:38.866Z,16.42
2022-12-05T01:20:02.397Z,19.33
2022-12-05T01:21:25.284Z,14.40
2022-12-05T01:22:48.668Z,24.45
2022-12-05T01:24:11.858Z,23.33
2022-12-05T01:25:35.789Z,20.92
2022-12-05T01:26:59.401Z,22.00
2022-12-05T01:28:21.972Z,11.43
2022-12-05T01:29:45.384Z,19.40
2022-12-05T01:31:10.575Z,19.80
2022-12-05T01:32:35.346Z,12.18
2022-12-05T01:34:00.258Z,22.52
2022-12-05T01:35:23.620Z,19.27
2022-12-05T01:36:46.524Z,14.32
2022-12-05T01:38:11.283Z,18.40
2022-12-05T01:39:34.723Z,15.52
2022-12-05T01:41:07.209Z,13.27
2022-12-05T01:42:30.609Z,14.45
2022-12-05T01:44:01.483Z,8.20
2022-12-05T01:45:32.418Z,25.52
2022-12-05T01:46:56.637Z,25.27
2022-12-05T01:48:23.456Z,9.95
2022-12-05T01:49:47.143Z,11.82
2022-12-05T01:51:10.542Z,19.35
2022-12-05T01:52:34.281Z,17.00
2022-12-05T01:53:57.799Z,14.00
2022-12-05T01:55:20.657Z,20.48
2022-12-05T01:56:52.019Z,23.65
2022-12-05T01:58:15.683Z,10.80
2022-12-05T01:59:40.125Z,23.15
2022-12-05T02:01:04.024Z,18.42
2022-12-05T02:02:27.666Z,13.38
2022-12-05T02:03:53.938Z,19.98
2022-12-05T02:05:19.081Z,18.60
2022-12-05T02:06:42.640Z,23.38
2022-12-05T02:08:10.028Z,17.15
2022-12-05T02:09:33.569Z,17.58
2022-12-05T02:10:58.685Z,8.00
2022-12-05T02:12:22.334Z,7.72
2022-12-05T02:13:54.281Z,14.88
2022-12-05T02:15:28.642Z,25.00
2022-12-05T02:16:58.973Z,17.23
2022-12-05T02:18:31.759Z,20.50
2022-12-05T02:20:05.458Z,15.05
2022-12-05T02:22:06.711Z,20.05
2022-12-05T02:24:01.312Z,18.52
2022-12-05T02:25:53.476Z,16.77
2022-12-05T02:27:42.742Z,23.83
2022-12-05T02:29:39.142Z,10.88
2022-12-05T02:31:05.552Z,7.10
2022-12-05T02:32:39.825Z,18.45
2022-12-05T02:34:07.125Z,12.45
2022-12-05T02:35:38.991Z,21.63
2022-12-05T02:37:06.922Z,20.92
2022-12-05T02:38:34.676Z,21.27
2022-12-05T02:40:04.620Z,20.52
2022-12-05T02:41:32.027Z,18.98
2022-12-05T02:42:59.036Z,13.90
2022-12-05T02:44:26.052Z,20.20
2022-12-05T02:45:54.147Z,20.30
2022-12-05T02:47:20.252Z,18.65
2022-12-05T02:48:44.088Z,19.13
2022-12-05T02:50:09.272Z,11.95
2022-12-05T02:51:35.655Z,12.52
2022-12-05T02:53:01.150Z,19.33
2022-12-05T02:54:28.089Z,16.38
2022-12-05T02:55:50.913Z,13.80
2022-12-05T02:57:15.298Z,14.88
2022-12-05T02:58:52.349Z,10.32
2022-12-05T03:00:16.895Z,17.80
2022-12-05T03:01:41.724Z,19.65
2022-12-05T03:03:13.031Z,21.10
2022-12-05T03:04:37.311Z,16.13
2022-12-05T03:06:04.833Z,10.98
2022-12-05T03:07:29.682Z,13.38
2022-12-05T03:08:55.906Z,20.60
2022-12-05T03:10:20.862Z,22.30
2022-12-05T03:11:47.173Z,18.85
2022-12-05T03:13:11.624Z,22.35
2022-12-05T03:14:36.911Z,14.35
2022-12-05T03:16:02.052Z,11.70
2022-12-05T03:17:29.497Z,16.83
2022-12-05T03:18:56.549Z,10.27
2022-12-05T03:20:25.293Z,15.10
2022-12-05T03:21:53.252Z,15.50
2022-12-05T03:23:21.469Z,12.57
2022-12-05T03:24:43.895Z,19.63
2022-12-05T03:26:16.283Z,15.15
2022-12-05T03:27:47.549Z,13.70
2022-12-05T03:29:23.986Z,11.50
2022-12-05T03:30:48.095Z,18.70
2022-12-05T03:32:15.003Z,16.05
2022-12-05T03:33:42.053Z,18.75
2022-12-05T03:35:12.695Z,17.27
2022-12-05T03:36:40.027Z,18.73
2022-12-05T03:38:07.132Z,17.48
2022-12-05T03:39:32.102Z,16.23
2022-12-05T03:40:57.788Z,12.90
2022-12-05T03:42:24.529Z,15.93
2022-12-05T03:43:51.143Z,20.17
2022-12-05T03:45:17.276Z,17.13
2022-12-05T03:46:44.447Z,14.38
2022-12-05T03:48:11.102Z,11.10
2022-12-05T03:49:38.183Z,18.48
2022-12-05T03:51:02.013Z,19.35
2022-12-05T03:52:27.668Z,11.65
2022-12-05T03:53:54.399Z,13.48
2022-12-05T03:55:17.490Z,14.70
2022-12-05T03:56:44.404Z,11.38
2022-12-05T03:58:10.181Z,15.90
2022-12-05T03:59:37.188Z,6.82
2022-12-05T04:01:02.898Z,10.98
2022-12-05T04:02:28.343Z,12.82
2022-12-05T04:03:54.489Z,14.30
2022-12-05T04:05:22.259Z,13.20
2022-12-05T04:06:46.925Z,18.13
2022-12-05T04:08:12.814Z,17.60
2022-12-05T04:09:39.160Z,14.10
2022-12-05T04:11:03.662Z,15.38
2022-12-05T04:12:29.843Z,15.93
2022-12-05T04:13:55.408Z,18.08
2022-12-05T04:15:22.505Z,10.13
2022-12-05T04:17:06.243Z,17.85
2022-12-05T04:18:29.537Z,17.98
2022-12-05T04:20:13.611Z,9.52
2022-12-05T04:21:41.669Z,17.80
2022-12-05T04:23:04.737Z,16.65
2022-12-05T04:24:48.787Z,13.05
2022-12-05T04:26:17.936Z,10.80
2022-12-05T04:27:45.736Z,8.27
2022-12-05T04:29:12.461Z,9.45
2022-12-05T04:30:38.613Z,20.13
2022-12-05T04:32:06.791Z,17.17
2022-12-05T04:33:34.336Z,19.13
2022-12-05T04:35:00.971Z,16.50
2022-12-05T04:36:26.968Z,17.98
2022-12-05T04:37:54.120Z,7.25
2022-12-05T04:39:19.648Z,12.52
2022-12-05T04:40:48.785Z,13.02
2022-12-05T04:42:14.036Z,13.50
2022-12-05T04:43:40.984Z,15.32
2022-12-05T04:45:05.801Z,9.88
2022-12-05T04:46:29.293Z,13.38
2022-12-05T04:47:55.887Z,13.48
2022-12-05T04:49:22.500Z,15.75
2022-12-05T04:50:47.809Z,14.65
2022-12-05T04:52:12.648Z,12.20
2022-12-05T04:53:37.854Z,14.30
2022-12-05T04:55:05.065Z,9.27
2022-12-05T04:56:31.212Z,12.25
2022-12-05T04:57:59.692Z,13.27
2022-12-05T04:59:25.514Z,15.45
2022-12-05T05:00:53.202Z,11.57
2022-12-05T05:02:19.133Z,15.25
2022-12-05T05:03:45.483Z,13.57
2022-12-05T05:05:14.070Z,14.52
2022-12-05T05:06:38.986Z,8.05
2022-12-05T05:08:01.848Z,15.73
2022-12-05T05:09:26.701Z,11.05
2022-12-05T05:10:57.623Z,14.60
2022-12-05T05:12:21.091Z,16.38
2022-12-05T05:13:43.511Z,15.77
2022-12-05T05:15:08.123Z,14.88
2022-12-05T05:16:33.193Z,9.65
2022-12-05T05:17:56.949Z,12.25
2022-12-05T05:19:20.369Z,13.75
2022-12-05T05:20:43.753Z,13.25
2022-12-05T05:22:07.154Z,12.93
2022-12-05T05:23:29.589Z,11.20
2022-12-05T05:24:54.439Z,10.95
2022-12-05T05:26:18.531Z,10.57
2022-12-05T05:27:40.948Z,12.05
2022-12-05T05:29:04.847Z,13.40
2022-12-05T05:30:27.454Z,14.55
2022-12-05T05:31:50.845Z,13.57
2022-12-05T05:33:14.319Z,11.68
2022-12-05T05:34:38.018Z,11.68
2022-12-05T05:36:05.132Z,14.80
2022-12-05T05:37:27.628Z,11.88
2022-12-05T05:38:52.406Z,15.13
2022-12-05T05:40:17.459Z,14.48
2022-12-05T05:41:40.824Z,9.30
2022-12-05T05:43:03.297Z,13.07
2022-12-05T05:44:26.687Z,14.02
2022-12-05T05:45:49.070Z,13.43
2022-12-05T05:47:12.890Z,12.80
2022-12-05T05:48:36.332Z,13.45
2022-12-05T05:49:59.088Z,13.75
2022-12-05T05:51:23.613Z,13.95
2022-12-05T05:52:46.955Z,12.00
2022-12-05T05:54:11.128Z,12.35
2022-12-05T05:55:35.844Z,9.07
2022-12-05T05:56:59.254Z,12.70
2022-12-05T05:58:22.650Z,13.25
2022-12-05T05:59:46.958Z,9.45
2022-12-05T06:01:13.151Z,14.73
2022-12-05T06:02:37.770Z,4.90
2022-12-05T06:04:01.341Z,13.90
2022-12-05T06:05:24.841Z,13.82
2022-12-05T06:06:48.261Z,4.97
2022-12-05T06:08:11.774Z,8.27
2022-12-05T06:09:35.356Z,8.20
2022-12-05T06:11:00.193Z,9.43
2022-12-05T06:12:23.929Z,11.52
2022-12-05T06:13:46.428Z,10.52
2022-12-05T06:15:10.777Z,10.57
2022-12-05T06:16:34.156Z,10.57
2022-12-05T06:17:58.679Z,11.35
2022-12-05T06:19:22.487Z,9.60
2022-12-05T06:20:54.163Z,11.10
2022-12-05T06:22:17.544Z,12.13
2022-12-05T06:23:41.653Z,10.45
2022-12-05T06:25:05.490Z,10.73
2022-12-05T06:26:30.812Z,5.15
2022-12-05T06:27:54.250Z,7.78
2022-12-05T06:29:17.617Z,11.60
2022-12-05T06:30:44.062Z,10.15
2022-12-05T06:32:07.663Z,10.35
2022-12-05T06:33:31.087Z,11.43
2022-12-05T06:34:54.658Z,8.57
2022-12-05T06:36:20.055Z,10.18
2022-12-05T06:37:43.574Z,9.07
2022-12-05T06:39:06.145Z,10.98
2022-12-05T06:40:29.720Z,7.90
2022-12-05T06:41:53.613Z,10.75
2022-12-05T06:43:16.980Z,11.95
2022-12-05T06:44:40.518Z,9.13
2022-12-05T06:46:06.198Z,11.40
2022-12-05T06:47:29.775Z,9.10
2022-12-05T06:48:54.539Z,11.00
2022-12-05T06:50:18.225Z,9.45
2022-12-05T06:51:41.692Z,9.93
2022-12-05T06:53:05.075Z,9.50
2022-12-05T06:54:28.536Z,11.40
2022-12-05T06:55:59.494Z,12.40
2022-12-05T06:57:24.235Z,8.90
2022-12-05T06:58:48.994Z,6.70
2022-12-05T07:00:31.454Z,10.00
2022-12-05T07:01:54.947Z,8.10
2022-12-05T07:03:17.386Z,10.60
2022-12-05T07:04:40.860Z,9.52
2022-12-05T07:06:04.311Z,10.88
2022-12-05T07:07:27.704Z,10.27
2022-12-05T07:08:51.108Z,9.73
2022-12-05T07:10:14.559Z,9.32
2022-12-05T07:11:38.093Z,8.55
2022-12-05T07:13:01.841Z,12.40
2022-12-05T07:14:46.411Z,11.18
2022-12-05T07:16:09.149Z,10.25
2022-12-05T07:17:36.046Z,11.30
2022-12-05T07:18:59.935Z,10.18
2022-12-05T07:20:23.414Z,11.18
2022-12-05T07:21:46.790Z,9.63
2022-12-05T07:23:10.275Z,9.73
2022-12-05T07:24:33.744Z,10.10
2022-12-05T07:25:57.741Z,10.95
2022-12-05T07:27:26.895Z,11.32
2022-12-05T07:28:52.893Z,11.65
2022-12-05T07:30:16.604Z,10.40
2022-12-05T07:31:40.092Z,7.65
2022-12-05T07:33:03.532Z,7.85
2022-12-05T07:34:27.136Z,9.95
2022-12-05T07:35:49.669Z,6.22
2022-12-05T07:37:14.050Z,9.00
2022-12-05T07:38:37.473Z,7.35
2022-12-05T07:40:01.205Z,8.68
2022-12-05T07:41:26.386Z,8.63
2022-12-05T07:42:50.321Z,8.55
2022-12-05T07:44:15.087Z,9.40
2022-12-05T07:45:38.570Z,10.38
2022-12-05T07:47:02.023Z,10.02
2022-12-05T07:48:25.491Z,8.80
2022-12-05T07:49:49.033Z,11.02
2022-12-05T07:51:12.807Z,10.45
2022-12-05T07:52:36.176Z,8.93
2022-12-05T07:54:01.466Z,11.30
2022-12-05T07:55:24.922Z,9.82
2022-12-05T07:56:48.491Z,8.82
2022-12-05T07:58:11.843Z,8.48
2022-12-05T07:59:36.667Z,10.55
2022-12-05T08:01:06.508Z,10.07
2022-12-05T08:02:30.006Z,9.40
2022-12-05T08:03:55.711Z,10.75
2022-12-05T08:05:19.163Z,8.68
2022-12-05T08:06:42.528Z,9.57
2022-12-05T08:08:06.310Z,9.13
2022-12-05T08:09:29.675Z,7.53
2022-12-05T08:10:53.175Z,10.25
2022-12-05T08:12:16.573Z,9.50
2022-12-05T08:13:40.023Z,8.98
2022-12-05T08:15:05.055Z,8.38
2022-12-05T08:16:29.909Z,6.25
2022-12-05T08:17:53.506Z,6.47
2022-12-05T08:19:17.859Z,9.77
2022-12-05T08:20:41.302Z,5.60
2022-12-05T08:22:04.785Z,7.60
2022-12-05T08:23:30.458Z,6.97
2022-12-05T08:24:56.380Z,7.47
2022-12-05T08:26:22.552Z,9.80
2022-12-05T08:27:46.109Z,8.77
2022-12-05T08:29:11.158Z,9.45
2022-12-05T08:30:36.975Z,9.85
2022-12-05T08:32:00.347Z,7.55
2022-12-05T08:33:23.802Z,10.30
2022-12-05T08:34:47.320Z,8.70
2022-12-05T08:36:13.189Z,8.35
2022-12-05T08:37:36.547Z,10.55
2022-12-05T08:39:02.115Z,8.90
2022-12-05T08:40:25.558Z,8.35
2022-12-05T08:41:49.885Z,8.05
2022-12-05T08:43:13.252Z,8.60
2022-12-05T08:44:36.675Z,8.18
2022-12-05T08:46:01.824Z,8.40
2022-12-05T08:47:25.229Z,9.43
2022-12-05T08:48:47.605Z,6.72
2022-12-05T08:50:11.476Z,6.22
2022-12-05T08:51:34.153Z,9.00
2022-12-05T08:52:57.553Z,9.13
2022-12-05T08:54:21.004Z,5.15
2022-12-05T08:55:45.573Z,8.88
2022-12-05T08:57:08.957Z,9.23
2022-12-05T08:58:32.495Z,10.48
2022-12-05T08:59:55.872Z,6.68
2022-12-05T09:01:22.130Z,9.13
2022-12-05T09:02:45.645Z,9.48
2022-12-05T09:04:09.803Z,5.90
2022-12-05T09:05:33.349Z,10.27
2022-12-05T09:06:56.833Z,4.88
2022-12-05T09:08:20.271Z,8.95
2022-12-05T09:09:43.717Z,9.40
2022-12-05T09:11:07.931Z,7.88
2022-12-05T09:12:31.413Z,9.27
2022-12-05T09:13:55.229Z,8.48
2022-12-05T09:15:18.651Z,7.65
2022-12-05T09:16:45.651Z,9.50
2022-12-05T09:18:09.089Z,9.52
2022-12-05T09:19:32.520Z,6.82
2022-12-05T09:20:55.897Z,8.68
2022-12-05T09:22:19.816Z,9.27
2022-12-05T09:23:43.818Z,8.70
2022-12-05T09:25:08.184Z,8.50
2022-12-05T09:26:32.289Z,8.23
2022-12-05T09:27:56.322Z,7.63
2022-12-05T09:29:20.066Z,6.10
2022-12-05T09:30:43.865Z,6.78
2022-12-05T09:32:08.837Z,6.13
2022-12-05T09:33:33.998Z,7.28
2022-12-05T09:34:57.628Z,8.80
2022-12-05T09:36:23.063Z,9.75
2022-12-05T09:37:46.439Z,8.52
2022-12-05T09:39:11.124Z,8.20
2022-12-05T09:40:34.600Z,8.73
2022-12-05T09:42:36.873Z,7.10
2022-12-05T09:44:03.481Z,9.90
2022-12-05T09:45:31.360Z,8.65
2022-12-05T09:46:57.764Z,10.57
2022-12-05T09:48:24.417Z,7.93
2022-12-05T09:49:51.995Z,7.43
2022-12-05T09:51:15.490Z,7.05
2022-12-05T09:52:41.924Z,9.23
2022-12-05T09:54:05.351Z,8.50
2022-12-05T09:55:32.254Z,7.82
2022-12-05T09:56:55.663Z,6.25
2022-12-05T09:58:34.896Z,8.10
2022-12-05T09:59:58.620Z,6.50
2022-12-05T10:01:34.930Z,8.38
2022-12-05T10:03:04.109Z,10.10
2022-12-05T10:04:48.789Z,9.55
2022-12-05T10:06:17.245Z,6.50
2022-12-05T10:07:45.417Z,8.93
2022-12-05T10:09:19.435Z,9.55
2022-12-05T10:11:00.944Z,5.10
2022-12-05T10:12:43.079Z,7.28
2022-12-05T10:14:12.525Z,7.88
2022-12-05T10:15:39.013Z,9.35
2022-12-05T10:17:11.858Z,9.45
2022-12-05T10:18:39.548Z,9.43
2022-12-05T10:20:06.563Z,9.90
2022-12-05T10:21:33.250Z,10.55
2022-12-05T10:22:59.689Z,8.38
2022-12-05T10:24:28.296Z,10.65
2022-12-05T10:25:56.839Z,10.38
2022-12-05T10:27:22.558Z,7.60
2022-12-05T10:28:52.745Z,8.95
2022-12-05T10:30:17.922Z,9.30
2022-12-05T10:31:41.844Z,9.75
2022-12-05T10:33:11.276Z,9.43
2022-12-05T10:34:38.875Z,9.43
2022-12-05T10:36:10.196Z,11.35
2022-12-05T10:37:33.538Z,10.02
2022-12-05T10:38:57.817Z,11.70
2022-12-05T10:40:21.983Z,10.45
2022-12-05T10:41:45.346Z,10.75
2022-12-05T10:43:09.714Z,10.23
2022-12-05T10:44:33.527Z,12.07
2022-12-05T10:45:57.424Z,11.82
2022-12-05T10:47:20.827Z,10.27
2022-12-05T10:48:44.544Z,8.98
2022-12-05T10:50:21.669Z,10.90
2022-12-05T10:51:46.664Z,9.73
2022-12-05T10:53:13.490Z,10.32
2022-12-05T10:54:43.273Z,12.02
2022-12-05T10:56:40.072Z,10.95
2022-12-05T10:58:17.534Z,11.38
2022-12-05T10:59:47.871Z,10.55
2022-12-05T11:01:17.021Z,10.57
2022-12-05T11:02:41.896Z,11.93
2022-12-05T11:04:13.914Z,11.75
2022-12-05T11:05:37.759Z,10.80
2022-12-05T11:07:04.589Z,11.48
2022-12-05T11:08:55.997Z,10.90
2022-12-05T11:10:26.331Z,11.25
2022-12-05T11:12:17.149Z,11.77
2022-12-05T11:13:53.817Z,9.85
2022-12-05T11:15:25.289Z,11.98
2022-12-05T11:16:54.972Z,11.45
2022-12-05T11:18:29.616Z,11.45
2022-12-05T11:19:53.031Z,11.13
2022-12-05T11:21:19.511Z,9.27
2022-12-05T11:22:48.559Z,8.93
2022-12-05T11:24:23.149Z,11.43
2022-12-05T11:25:46.708Z,10.75
2022-12-05T11:27:26.780Z,10.45
2022-12-05T11:28:50.175Z,11.68
2022-12-05T11:30:20.393Z,11.60
2022-12-05T11:31:52.999Z,10.68
2022-12-05T11:33:23.114Z,10.20
2022-12-05T11:34:50.260Z,11.50
2022-12-05T11:36:15.716Z,11.23
2022-12-05T11:37:45.287Z,11.10
2022-12-05T11:39:10.097Z,11.88
2022-12-05T11:40:39.393Z,11.55
2022-12-05T11:42:20.862Z,11.35
2022-12-05T11:43:59.036Z,11.70
2022-12-05T11:45:45.044Z,11.20
2022-12-05T11:47:18.692Z,12.07
2022-12-05T11:48:56.745Z,11.65
2022-12-05T11:50:29.882Z,9.98
2022-12-05T11:52:02.787Z,11.93
2022-12-05T11:53:43.841Z,9.10
2022-12-05T11:55:16.209Z,10.48
2022-12-05T11:56:40.463Z,9.82
2022-12-05T11:58:32.970Z,10.43
2022-12-05T12:00:24.590Z,8.80
2022-12-05T12:01:54.491Z,10.73
2022-12-05T12:03:42.825Z,10.48
2022-12-05T12:05:13.993Z,11.65
2022-12-05T12:06:50.821Z,8.73
2022-12-05T12:08:21.324Z,9.00
2022-12-05T12:09:53.803Z,11.82
2022-12-05T12:11:28.280Z,11.63
2022-12-05T12:13:01.979Z,7.80
2022-12-05T12:14:28.820Z,10.75
2022-12-05T12:16:03.793Z,10.35
2022-12-05T12:17:35.320Z,11.65
2022-12-05T12:19:07.287Z,9.98
2022-12-05T12:20:42.178Z,12.38
2022-12-05T12:22:29.176Z,11.23
2022-12-05T12:24:04.706Z,12.00
2022-12-05T12:25:38.183Z,11.27
2022-12-05T12:27:06.791Z,12.07
2022-12-05T12:28:39.026Z,11.23
2022-12-05T12:30:07.929Z,11.30
2022-12-05T12:31:46.646Z,12.23
2022-12-05T12:33:16.288Z,10.85
2022-12-05T12:35:01.961Z,11.60
2022-12-05T12:36:28.882Z,11.70
2022-12-05T12:38:06.971Z,10.75
2022-12-05T12:39:38.045Z,10.90
2022-12-05T12:41:08.065Z,10.85
2022-12-05T12:42:35.756Z,11.27
2022-12-05T12:44:08.059Z,11.77
2022-12-05T12:45:50.686Z,13.07
2022-12-05T12:47:19.785Z,11.23
2022-12-05T12:49:00.079Z,12.85
2022-12-05T12:50:25.279Z,12.50
2022-12-05T12:51:53.243Z,12.55
2022-12-05T12:53:35.143Z,12.52
2022-12-05T12:55:12.234Z,13.35
2022-12-05T12:56:43.449Z,13.05
2022-12-05T12:58:17.433Z,12.77
2022-12-05T12:59:53.576Z,14.18
2022-12-05T13:01:26.673Z,13.73
2022-12-05T13:02:53.036Z,14.35
2022-12-05T13:04:19.206Z,13.32
2022-12-05T13:05:47.720Z,14.00
2022-12-05T13:07:14.449Z,12.88
2022-12-05T13:08:42.217Z,12.60
2022-12-05T13:10:13.195Z,14.15
2022-12-05T13:11:40.454Z,13.75
2022-12-05T13:13:05.278Z,14.20
2022-12-05T13:14:30.572Z,14.68
2022-12-05T13:15:57.027Z,15.77
2022-12-05T13:17:22.682Z,14.02
2022-12-05T13:18:47.235Z,14.90
2022-12-05T13:20:16.357Z,12.95
2022-12-05T13:21:39.789Z,14.90
2022-12-05T13:23:08.137Z,15.23
2022-12-05T13:24:31.936Z,14.27
2022-12-05T13:25:56.857Z,15.55
2022-12-05T13:27:23.178Z,14.80
2022-12-05T13:28:52.663Z,14.85
2022-12-05T13:30:18.579Z,15.90
2022-12-05T13:31:44.363Z,14.82
2022-12-05T13:33:10.038Z,16.48
2022-12-05T13:34:54.640Z,15.30
2022-12-05T13:36:38.496Z,15.65
2022-12-05T13:38:19.562Z,15.48
2022-12-05T13:40:00.713Z,14.88
2022-12-05T13:41:41.810Z,15.73
2022-12-05T13:43:06.786Z,15.57
2022-12-05T13:44:34.349Z,14.85
2022-12-05T13:46:04.272Z,14.70
2022-12-05T13:47:32.182Z,16.98
2022-12-05T13:49:06.847Z,16.63
2022-12-05T13:50:36.736Z,17.98
2022-12-05T13:52:07.872Z,15.35
2022-12-05T13:53:37.504Z,14.15
2022-12-05T13:55:06.741Z,17.63
2022-12-05T13:56:49.332Z,16.33
2022-12-05T13:58:42.616Z,15.15
2022-12-05T14:00:24.057Z,16.23
2022-12-05T14:01:56.053Z,16.60
2022-12-05T14:03:57.090Z,14.73
2022-12-05T14:05:41.036Z,14.35
2022-12-05T14:07:04.583Z,17.67
2022-12-05T14:08:54.098Z,15.70
2022-12-05T14:10:21.498Z,17.23
2022-12-05T14:12:29.989Z,17.17
2022-12-05T14:13:57.983Z,17.75
2022-12-05T14:15:37.896Z,15.60
2022-12-05T14:17:04.403Z,17.67
2022-12-05T14:18:35.261Z,15.82
2022-12-05T14:20:11.119Z,17.40
2022-12-05T14:21:42.188Z,17.65
2022-12-05T14:23:17.580Z,16.70
2022-12-05T14:24:47.976Z,16.98
2022-12-05T14:26:24.022Z,16.45
2022-12-05T14:27:52.912Z,18.92
2022-12-05T14:29:43.591Z,17.58
2022-12-05T14:31:17.781Z,17.40
2022-12-05T14:32:44.031Z,17.60
2022-12-05T14:34:20.786Z,18.27
2022-12-05T14:35:47.605Z,16.60
2022-12-05T14:37:29.177Z,17.58
2022-12-05T14:38:52.565Z,17.95
2022-12-05T14:40:22.385Z,17.90
2022-12-05T14:41:47.478Z,18.63
2022-12-05T14:43:20.928Z,17.83
2022-12-05T14:44:50.112Z,17.75
2022-12-05T14:46:21.114Z,16.52
2022-12-05T14:47:51.891Z,18.20
2022-12-05T14:49:48.682Z,18.45
2022-12-05T14:51:45.671Z,17.58
2022-12-05T14:53:27.704Z,17.42
2022-12-05T14:54:52.433Z,17.13
2022-12-05T14:56:20.771Z,18.02
2022-12-05T14:57:48.437Z,19.85
2022-12-05T14:59:23.344Z,18.67
2022-12-05T15:00:48.997Z,18.65
2022-12-05T15:02:20.109Z,19.40
2022-12-05T15:03:50.231Z,17.92
2022-12-05T15:05:23.120Z,18.77
2022-12-05T15:06:49.606Z,19.73
2022-12-05T15:08:16.332Z,18.40
2022-12-05T15:09:49.739Z,19.48
2022-12-05T15:11:28.076Z,18.80
2022-12-05T15:12:54.945Z,17.77
2022-12-05T15:14:21.534Z,18.05
2022-12-05T15:15:49.003Z,18.05
2022-12-05T15:17:16.613Z,19.30
2022-12-05T15:18:41.790Z,18.92
2022-12-05T15:20:09.747Z,18.63
2022-12-05T15:21:37.049Z,19.75
2022-12-05T15:23:00.433Z,18.42
2022-12-05T15:24:24.113Z,17.50
2022-12-05T15:25:47.763Z,19.95
2022-12-05T15:27:12.712Z,18.55
2022-12-05T15:28:36.078Z,17.80
2022-12-05T15:29:59.495Z,19.33
2022-12-05T15:31:24.501Z,16.73
2022-12-05T15:32:48.438Z,18.13
2022-12-05T15:34:17.648Z,18.95
2022-12-05T15:35:41.268Z,19.27
2022-12-05T15:37:07.652Z,17.77
2022-12-05T15:38:32.465Z,21.73
2022-12-05T15:39:57.472Z,19.88
2022-12-05T15:41:21.071Z,18.58
2022-12-05T15:42:45.934Z,19.27
2022-12-05T15:44:11.316Z,18.65
2022-12-05T15:45:34.676Z,20.73
2022-12-05T15:46:59.835Z,19.45
2022-12-05T15:48:23.425Z,19.55
2022-12-05T15:49:47.640Z,20.98
2022-12-05T15:51:11.513Z,18.50
2022-12-05T15:52:38.898Z,18.90
2022-12-05T15:54:06.977Z,19.27
2022-12-05T15:55:33.347Z,19.35
2022-12-05T15:57:01.090Z,20.05
2022-12-05T15:58:26.819Z,18.40
2022-12-05T15:59:53.358Z,17.75
2022-12-05T16:01:20.155Z,18.63
2022-12-05T16:02:47.975Z,17.10
2022-12-05T16:04:17.790Z,18.00
2022-12-05T16:05:47.293Z,18.80
2022-12-05T16:07:14.053Z,18.40
2022-12-05T16:08:41.975Z,17.35
2022-12-05T16:10:06.306Z,18.38
2022-12-05T16:11:29.714Z,18.20
2022-12-05T16:12:53.235Z,17.33
2022-12-05T16:14:31.191Z,20.15
2022-12-05T16:16:00.122Z,19.40
2022-12-05T16:17:23.769Z,18.55
2022-12-05T16:18:53.873Z,16.05
2022-12-05T16:20:31.403Z,17.77
2022-12-05T16:22:02.970Z,17.25
2022-12-05T16:23:28.513Z,16.45
2022-12-05T16:25:02.564Z,19.38
2022-12-05T16:26:26.954Z,18.55
2022-12-05T16:28:01.509Z,19.08
2022-12-05T16:29:28.975Z,16.92
2022-12-05T16:30:58.175Z,18.08
2022-12-05T16:32:24.512Z,16.10
2022-12-05T16:33:47.978Z,18.35
2022-12-05T16:35:29.436Z,17.52
2022-12-05T16:36:53.755Z,19.05
2022-12-05T16:38:20.921Z,18.38
2022-12-05T16:39:46.835Z,17.75
2022-12-05T16:41:10.381Z,17.70
2022-12-05T16:42:34.977Z,17.08
2022-12-05T16:43:58.404Z,19.35
2022-12-05T16:45:39.995Z,18.75
2022-12-05T16:47:03.677Z,17.95
2022-12-05T16:48:28.246Z,18.15
2022-12-05T16:49:51.792Z,19.45
2022-12-05T16:51:21.179Z,17.27
2022-12-05T16:52:44.578Z,17.80
2022-12-05T16:54:08.376Z,18.05
2022-12-05T16:55:37.245Z,17.27
2022-12-05T16:57:01.549Z,18.98
2022-12-05T16:58:26.899Z,18.75
2022-12-05T16:59:50.303Z,19.83
2022-12-05T17:01:18.851Z,17.85
2022-12-05T17:02:42.521Z,16.98
2022-12-05T17:04:06.105Z,17.67
2022-12-05T17:05:30.135Z,19.00
2022-12-05T17:06:54.948Z,17.60
2022-12-05T17:08:18.505Z,18.60
2022-12-05T17:09:41.903Z,18.63
2022-12-05T17:11:07.303Z,18.58
2022-12-05T17:12:30.881Z,18.48
2022-12-05T17:13:54.781Z,16.90
2022-12-05T17:15:19.147Z,19.52
2022-12-05T17:16:43.011Z,19.75
2022-12-05T17:18:12.587Z,18.70
2022-12-05T17:19:35.950Z,18.90
2022-12-05T17:20:59.643Z,18.55
2022-12-05T17:22:26.991Z,17.75
2022-12-05T17:23:51.832Z,17.70
2022-12-05T17:25:30.987Z,17.60
2022-12-05T17:26:54.474Z,17.08
2022-12-05T17:28:18.147Z,17.35
2022-12-05T17:29:41.547Z,17.80
2022-12-05T17:31:05.215Z,18.75
2022-12-05T17:32:28.688Z,17.40
2022-12-05T17:33:53.433Z,17.77
2022-12-05T17:35:18.342Z,18.15
2022-12-05T17:36:41.708Z,15.93
2022-12-05T17:38:06.868Z,17.20
2022-12-05T17:39:30.504Z,18.13
2022-12-05T17:40:53.925Z,17.80
2022-12-05T17:42:17.324Z,17.52
2022-12-05T17:43:40.861Z,18.30
2022-12-05T17:45:06.328Z,19.48
2022-12-05T17:46:29.881Z,17.88
2022-12-05T17:47:53.596Z,17.98
2022-12-05T17:49:18.355Z,17.08
2022-12-05T17:50:42.456Z,17.00
2022-12-05T17:52:22.419Z,16.45
2022-12-05T17:53:47.845Z,17.38
2022-12-05T17:55:18.011Z,16.23
2022-12-05T17:56:41.633Z,16.50
2022-12-05T17:58:05.055Z,18.05
2022-12-05T17:59:28.472Z,17.08
2022-12-05T18:00:52.017Z,18.23
2022-12-05T18:02:17.466Z,17.65
2022-12-05T18:03:40.926Z,16.88
2022-12-05T18:05:04.453Z,16.80
2022-12-05T18:06:28.842Z,16.95
2022-12-05T18:07:52.508Z,18.17
2022-12-05T18:09:17.334Z,17.15
2022-12-05T18:10:43.564Z,17.35
2022-12-05T18:12:07.377Z,17.42
2022-12-05T18:13:32.143Z,18.17
2022-12-05T18:14:55.530Z,16.27
2022-12-05T18:16:19.032Z,16.10
2022-12-05T18:17:43.544Z,16.58
2022-12-05T18:19:08.180Z,17.92
2022-12-05T18:20:31.798Z,17.88
2022-12-05T18:21:55.183Z,17.08
2022-12-05T18:23:18.595Z,16.80
2022-12-05T18:24:43.482Z,16.35
2022-12-05T18:26:07.733Z,17.77
2022-12-05T18:27:31.454Z,16.45
2022-12-05T18:28:56.726Z,15.77
2022-12-05T18:30:20.240Z,16.45
2022-12-05T18:31:43.691Z,17.55
2022-12-05T18:33:07.119Z,18.45
2022-12-05T18:34:30.647Z,17.70
2022-12-05T18:35:54.878Z,16.90
2022-12-05T18:37:18.404Z,17.30
2022-12-05T18:38:43.198Z,17.80
2022-12-05T18:40:10.448Z,16.85
2022-12-05T18:41:34.039Z,18.58
2022-12-05T18:42:57.390Z,17.25
2022-12-05T18:44:20.747Z,17.95
2022-12-05T18:45:43.158Z,17.42
2022-12-05T18:47:06.666Z,18.55
2022-12-05T18:48:39.566Z,17.35
2022-12-05T18:50:04.255Z,17.85
2022-12-05T18:51:27.925Z,17.48
2022-12-05T18:52:51.280Z,18.02
2022-12-05T18:54:14.921Z,23.45